createdAt,value
2022-08-22T00:07:07.000Z,9.80
2022-08-22T00:17:07.000Z,12.00
2022-08-22T00:27:08.000Z,16.10
2022-08-22T00:37:08.000Z,11.60
2022-08-22T00:47:09.000Z,20.90
2022-08-22T00:57:09.000Z,14.40
2022-08-22T01:07:10.000Z,33.60
2022-08-22T01:27:11.000Z,14.60
2022-08-22T01:37:11.000Z,15.70
2022-08-22T01:47:12.000Z,15.00
2022-08-22T01:57:12.000Z,15.10
2022-08-22T01:57:12.000Z,15.10
2022-08-22T02:07:13.000Z,24.10
2022-08-22T02:17:13.000Z,22.60
2022-08-22T02:27:14.000Z,39.00
2022-08-22T02:37:14.000Z,17.80
2022-08-22T02:57:15.000Z,27.50
2022-08-22T03:07:16.000Z,19.20
2022-08-22T03:17:16.000Z,21.90
2022-08-22T03:17:16.000Z,21.90
2022-08-22T03:27:17.000Z,18.80
2022-08-22T03:37:17.000Z,17.70
2022-08-22T03:47:18.000Z,18.40
2022-08-22T03:57:19.000Z,19.70
2022-08-22T04:07:19.000Z,23.50
2022-08-22T04:27:20.000Z,21.00
2022-08-22T04:37:21.000Z,35.40
2022-08-22T04:47:21.000Z,24.80
2022-08-22T04:57:22.000Z,33.90
2022-08-22T04:57:22.000Z,33.90
2022-08-22T05:07:23.000Z,34.20
2022-08-22T05:17:23.000Z,47.30
2022-08-22T05:27:24.000Z,57.00
2022-08-22T05:37:24.000Z,41.70
2022-08-22T05:57:25.000Z,37.60
2022-08-22T06:07:26.000Z,30.90
2022-08-22T06:17:26.000Z,42.50
2022-08-22T06:27:27.000Z,34.50
2022-08-22T06:37:27.000Z,24.80
2022-08-22T06:47:27.000Z,21.90
2022-08-22T06:57:28.000Z,20.50
2022-08-22T07:07:28.000Z,17.50
2022-08-22T07:27:28.000Z,16.70
2022-08-22T07:37:28.000Z,24.90
2022-08-22T07:47:28.000Z,10.90
2022-08-22T07:57:28.000Z,17.20
2022-08-22T08:07:28.000Z,9.50
2022-08-22T08:17:28.000Z,15.10
2022-08-22T08:27:28.000Z,6.90
2022-08-22T08:37:28.000Z,11.10
2022-08-22T08:57:28.000Z,10.90
2022-08-22T09:07:28.000Z,4.80
2022-08-22T09:17:27.000Z,8.00
2022-08-22T09:27:27.000Z,3.90
2022-08-22T09:37:27.000Z,3.70
2022-08-22T09:47:27.000Z,4.30
2022-08-22T09:57:26.000Z,5.50
2022-08-22T10:07:26.000Z,3.70
2022-08-22T10:27:26.000Z,3.60
2022-08-22T10:37:25.000Z,7.80
2022-08-22T10:47:25.000Z,3.60
2022-08-22T10:57:25.000Z,6.90
2022-08-22T11:07:24.000Z,8.30
2022-08-22T11:17:24.000Z,3.80
2022-08-22T11:17:24.000Z,3.80
2022-08-22T11:27:23.000Z,11.70
2022-08-22T11:27:23.000Z,11.70
2022-08-22T11:37:23.000Z,6.50
2022-08-22T11:57:22.000Z,6.90
2022-08-22T12:07:22.000Z,3.40
2022-08-22T12:07:22.000Z,3.40
2022-08-22T12:17:21.000Z,4.40
2022-08-22T12:27:21.000Z,7.30
2022-08-22T12:37:20.000Z,5.20
2022-08-22T12:47:20.000Z,11.80
2022-08-22T12:57:20.000Z,4.10
2022-08-22T13:07:19.000Z,10.20
2022-08-22T13:27:18.000Z,8.60
2022-08-22T13:37:18.000Z,4.10
2022-08-22T13:47:17.000Z,3.80
2022-08-22T13:57:17.000Z,19.70
2022-08-22T14:07:16.000Z,4.00
2022-08-22T14:17:16.000Z,23.20
2022-08-22T14:27:15.000Z,10.10
2022-08-22T14:37:15.000Z,3.20
2022-08-22T14:57:14.000Z,4.00
2022-08-22T15:07:13.000Z,4.00
2022-08-22T15:17:13.000Z,4.90
2022-08-22T15:27:12.000Z,3.10
2022-08-22T15:37:12.000Z,4.00
2022-08-22T15:37:12.000Z,4.00
2022-08-22T15:47:11.000Z,4.60
2022-08-22T15:57:11.000Z,4.10
2022-08-22T16:07:10.000Z,3.60
2022-08-22T16:27:10.000Z,4.30
2022-08-22T16:37:09.000Z,4.10
2022-08-22T16:47:09.000Z,4.40
2022-08-22T16:57:09.000Z,11.50
2022-08-22T17:07:08.000Z,3.80
2022-08-22T17:17:08.000Z,12.20
2022-08-22T17:27:08.000Z,3.70
2022-08-22T17:37:08.000Z,3.90
2022-08-22T17:57:07.000Z,3.90
2022-08-22T18:07:07.000Z,5.30
2022-08-22T18:17:07.000Z,4.70
2022-08-22T18:17:07.000Z,4.70
2022-08-22T18:27:07.000Z,4.90
2022-08-22T18:37:07.000Z,3.90
2022-08-22T18:47:06.000Z,4.80
2022-08-22T18:57:06.000Z,6.80
2022-08-22T19:07:06.000Z,13.70
2022-08-22T19:27:06.000Z,4.70
2022-08-22T19:27:06.000Z,4.70
2022-08-22T19:37:06.000Z,8.90
2022-08-22T19:47:06.000Z,7.00
2022-08-22T19:57:06.000Z,6.60
2022-08-22T20:07:06.000Z,6.40
2022-08-22T20:17:06.000Z,8.30
2022-08-22T20:27:06.000Z,6.20
2022-08-22T20:27:06.000Z,6.20
2022-08-22T20:37:06.000Z,7.30
2022-08-22T20:57:06.000Z,6.30
2022-08-22T21:07:06.000Z,7.20
2022-08-22T21:17:06.000Z,13.10
2022-08-22T21:27:06.000Z,7.90
2022-08-22T21:37:06.000Z,6.70
2022-08-22T21:47:06.000Z,8.20
2022-08-22T21:57:07.000Z,10.60
2022-08-22T22:07:07.000Z,13.30
2022-08-22T22:27:07.000Z,10.00
2022-08-22T22:37:08.000Z,10.60
2022-08-22T22:47:08.000Z,7.80
2022-08-22T22:47:08.000Z,7.80
2022-08-22T22:57:08.000Z,9.60
2022-08-22T23:07:08.000Z,9.70
2022-08-22T23:17:09.000Z,21.60
2022-08-22T23:27:09.000Z,9.90
2022-08-22T23:37:09.000Z,14.10
2022-08-22T23:57:10.000Z,16.10
